Caribou, Maine
Current Conditions -  °F | °C
As of 8:54 AM on Friday 24 Oct 2014 (Local Time) from KCAR Reporting Station
Moderate Rain Moderate Rain  
Wind Chill: 31°   Ceiling: 5500
Heat Index: 40°   Visibility: 5mi
Dew Point: 37°   Wind: 17mph
Humidity: 89%   Direction: 10°N
Pressure: 29.79"   Gusts: NA
Location:  46.86°N, 68.01°W
Report Text: KCAR 241254Z AUTO 01015KT 5SM RA BR BKN055 OVC080 04/03 A2979 RMK AO2 SLP095 P0010 T00440028
Loading
Personal Weather Stations






























Interactive Weather Map
Tropical Storm Tracking
New forecast layout! Learn more

10-Day Weather Forecast

Advertisements
Track Severe Weather on mobile